Track Чижикова Наталия

Time Latitude Longitude Accuracy (66% radius in meters) Altitude (meters) Speed (km/hour) Bearing (degrees) Battery (%) GPS flag
11:27:50 57.204152 60.118022 6.773889541626 283.08009690046 1.9274498224258 141.56658935547 76 1 delete
11:27:46 57.204240 60.117900 7.2634973526001 284.40452944301 2.1695837974548 138.26907348633 76 1 delete
11:27:41 57.204332 60.117786 6.6191468238831 284.11772663333 1.8749612569809 148.34255981445 76 1 delete
11:27:36 57.204410 60.117677 5.9449863433838 283.39392560814 1.6813558340073 137.10150146484 76 1 delete
11:27:32 57.204499 60.117597 6.0026249885559 285.81237236969 1.9172967672348 138.99934387207 76 1 delete
11:27:28 57.204589 60.117523 7.1501550674438 287.77640828677 2.1544320583344 147.93553161621 76 1 delete
11:27:25 57.204677 60.117474 6.8854646682739 289.59940794483 2.1299130916595 147.88804626465 76 1 delete
11:27:21 57.204790 60.117425 8.4759063720703 291.66822736617 2.924964427948 160.73344421387 76 1 delete
11:27:18 57.204892 60.117407 8.1327838897705 292.28706509899 3.0979020595551 180.1441192627 76 1 delete
11:27:15 57.204986 60.117404 8.4599380493164 290.53503126837 2.3438355922699 185.38836669922 76 1 delete
11:27:11 57.205095 60.117399 6.9550719261169 289.69869542401 2.2028784751892 185.69465637207 76 1 delete
11:27:07 57.205194 60.117393 6.834885597229 288.09804663435 2.2236437797546 192.06025695801 76 1 delete
11:27:03 57.205290 60.117385 6.6660423278809 288.15300847404 1.2359513044357 179.08979797363 76 1 delete
11:26:59 57.205378 60.117335 6.6602320671082 287.86652273871 1.6208585500717 160.42454528809 76 1 delete
11:26:55 57.205460 60.117250 7.5825872421265 289.83628149889 1.1207854747772 118.30265045166 76 1 delete
11:26:46 57.205536 60.117156 7.3579773902893 289.10478532501 0.64284646511078 135.02137756348 76 1 delete
11:26:43 57.205625 60.117122 8.269118309021 289.1594764404 1.7652816772461 169.90200805664 76 1 delete
11:26:37 57.205746 60.117127 10.249153137207 290.2531638043 0.99827194213867 138.07623291016 76 1 delete
11:26:31 57.205850 60.117077 8.8695526123047 290.34010525513 0.87720459699631 165.86714172363 76 1 delete
11:26:26 57.205945 60.117075 9.3487129211426 291.86417097319 1.2862312793732 153.31930541992 76 1 delete
11:26:22 57.206061 60.117046 8.2907562255859 292.21510058176 3.6395883560181 161.53736877441 76 1 delete
11:26:19 57.206177 60.117023 12.243075370789 291.61547431163 2.23481798172 167.5984954834 76 1 delete
11:26:14 57.206273 60.116978 7.4858617782593 292.72427668795 2.1315851211548 185.01431274414 76 1 delete
11:26:10 57.206382 60.117001 6.8207063674927 295.06404602621 3.1713349819183 184.39611816406 76 1 delete
11:26:06 57.206499 60.117002 5.0225877761841 296.88063925412 2.2222337722778 173.35815429688 76 1 delete
11:26:01 57.206596 60.116988 5 302.67605913337 1.7222641706467 193.97636413574 76 1 delete
11:25:49 57.206697 60.116916 5 300.96634267271 0 0 76 1 delete
11:25:41 57.206680 60.116749 5 299.02858204767 0.87789154052734 118.68937683105 76 1 delete
11:25:27 57.206670 60.116580 5.9336047172546 292.0832864577 0 118.68937683105 76 1 delete
11:25:26 57.202340 60.114519 6.8330278396606 292.0832864577 0 118.68937683105 76 1 delete
11:25:15 57.206676 60.116500 7.2474451065063 290.53030196484 0 118.68937683105 76 1 delete
11:24:53 57.206741 60.116368 5 289.5147849787 0.55625683069229 79.748825073242 76 1 delete
11:24:45 57.206836 60.116366 5.9325499534607 289.74191568606 0 152.57315063477 76 1 delete
11:24:40 57.206932 60.116402 7.2911124229431 289.18586184364 0.93102103471756 131.20536804199 76 1 delete
11:24:36 57.207033 60.116415 6.2628026008606 288.4107174268 1.2183191776276 177.37327575684 76 1 delete
11:24:14 57.207134 60.116477 9.5573244094849 287.98327427357 1.1496410369873 204.0158996582 76 1 delete
11:24:09 57.207229 60.116557 8.4971828460693 289.64754281007 2.047952413559 190.76953125 76 1 delete
11:24:04 57.207330 60.116616 7.2340040206909 288.49366778228 1.0750604867935 192.11839294434 76 1 delete
11:23:59 57.207426 60.116677 7.6126346588135 289.89163668733 1.0910794734955 223.14265441895 76 1 delete
11:23:52 57.207516 60.116758 8.3490905761719 290.35693798307 0 186.42384338379 76 1 delete
11:23:47 57.207608 60.116743 6.2889924049377 289.30343427975 1.1683613061905 163.40888977051 76 1 delete
11:23:40 57.207693 60.116822 6.1000027656555 286.09009964205 1.9705274105072 244.7048034668 76 1 delete
11:23:34 57.207744 60.117002 8.0757780075073 284.03490363061 1.3101699352264 276.15994262695 76 1 delete
11:23:27 57.207773 60.117174 8.29723072052 283.67742258217 1.4362766742706 235.23020935059 76 1 delete
11:23:22 57.207858 60.117271 7.2426586151123 280.33379988652 0 242.36434936523 76 1 delete
11:23:15 57.207945 60.117331 10.977116584778 274.35535897594 1.5732204914093 209.53350830078 76 1 delete
11:23:03 57.208029 60.117268 9.624659538269 272.07978386525 1.6196057796478 146.91815185547 76 1 delete
11:22:53 57.208110 60.117147 8.7033729553223 272.15510390326 0 159.91163635254 76 1 delete
11:22:49 57.208200 60.117053 8.6205654144287 267.47062561754 1.3275911808014 161.7141418457 76 1 delete
11:22:35 57.208288 60.116938 7.3017692565918 265.86523488816 0.59917169809341 239.16123962402 76 1 delete